sensor_id;sensor_type;location;lat;lon;timestamp;P1;durP1;ratioP1;P2;durP2;ratioP2
13720;SDS011;6932;51.438;5.470;2023-02-28T00:00:33;9.47;;;5.57;;
13720;SDS011;6932;51.438;5.470;2023-02-28T00:03:01;9.20;;;5.67;;
13720;SDS011;6932;51.438;5.470;2023-02-28T00:05:27;11.43;;;5.83;;
13720;SDS011;6932;51.438;5.470;2023-02-28T00:07:54;9.13;;;5.27;;
13720;SDS011;6932;51.438;5.470;2023-02-28T00:10:21;11.50;;;5.87;;
13720;SDS011;6932;51.438;5.470;2023-02-28T00:12:52;9.03;;;5.50;;
13720;SDS011;6932;51.438;5.470;2023-02-28T00:15:21;8.30;;;5.20;;
13720;SDS011;6932;51.438;5.470;2023-02-28T00:17:49;10.00;;;5.53;;
13720;SDS011;6932;51.438;5.470;2023-02-28T00:20:15;8.07;;;5.33;;
13720;SDS011;6932;51.438;5.470;2023-02-28T00:22:43;11.17;;;5.67;;
13720;SDS011;6932;51.438;5.470;2023-02-28T00:25:14;9.87;;;5.63;;
13720;SDS011;6932;51.438;5.470;2023-02-28T00:27:46;12.93;;;5.97;;
13720;SDS011;6932;51.438;5.470;2023-02-28T00:30:13;8.77;;;5.30;;
13720;SDS011;6932;51.438;5.470;2023-02-28T00:32:43;9.20;;;5.53;;
13720;SDS011;6932;51.438;5.470;2023-02-28T00:35:10;10.53;;;5.87;;
13720;SDS011;6932;51.438;5.470;2023-02-28T00:37:37;9.10;;;5.40;;
13720;SDS011;6932;51.438;5.470;2023-02-28T00:40:03;11.60;;;6.33;;
13720;SDS011;6932;51.438;5.470;2023-02-28T00:42:31;10.80;;;5.73;;
13720;SDS011;6932;51.438;5.470;2023-02-28T00:44:58;9.07;;;5.70;;
13720;SDS011;6932;51.438;5.470;2023-02-28T00:47:24;10.27;;;6.27;;
13720;SDS011;6932;51.438;5.470;2023-02-28T00:49:49;10.63;;;5.80;;
13720;SDS011;6932;51.438;5.470;2023-02-28T00:52:15;9.93;;;5.77;;
13720;SDS011;6932;51.438;5.470;2023-02-28T00:54:41;8.97;;;5.30;;
13720;SDS011;6932;51.438;5.470;2023-02-28T00:57:07;9.10;;;5.50;;
13720;SDS011;6932;51.438;5.470;2023-02-28T00:59:32;11.43;;;5.93;;
13720;SDS011;6932;51.438;5.470;2023-02-28T01:01:58;10.20;;;6.07;;
13720;SDS011;6932;51.438;5.470;2023-02-28T01:04:24;11.23;;;6.13;;
13720;SDS011;6932;51.438;5.470;2023-02-28T01:06:50;12.87;;;6.57;;
13720;SDS011;6932;51.438;5.470;2023-02-28T01:09:15;9.37;;;6.20;;
13720;SDS011;6932;51.438;5.470;2023-02-28T01:11:41;10.83;;;6.03;;
13720;SDS011;6932;51.438;5.470;2023-02-28T01:14:09;9.30;;;5.73;;
13720;SDS011;6932;51.438;5.470;2023-02-28T01:16:41;11.03;;;6.10;;
13720;SDS011;6932;51.438;5.470;2023-02-28T01:19:08;10.10;;;5.87;;
13720;SDS011;6932;51.438;5.470;2023-02-28T01:21:34;9.17;;;5.80;;
13720;SDS011;6932;51.438;5.470;2023-02-28T01:24:03;10.60;;;6.00;;
13720;SDS011;6932;51.438;5.470;2023-02-28T01:26:31;10.50;;;6.10;;
13720;SDS011;6932;51.438;5.470;2023-02-28T01:28:57;9.63;;;5.53;;
13720;SDS011;6932;51.438;5.470;2023-02-28T01:31:23;10.90;;;6.57;;
13720;SDS011;6932;51.438;5.470;2023-02-28T01:33:49;9.50;;;5.87;;
13720;SDS011;6932;51.438;5.470;2023-02-28T01:36:19;9.53;;;5.87;;
13720;SDS011;6932;51.438;5.470;2023-02-28T01:38:48;9.47;;;5.80;;
13720;SDS011;6932;51.438;5.470;2023-02-28T01:41:16;10.50;;;6.13;;
13720;SDS011;6932;51.438;5.470;2023-02-28T01:46:12;9.53;;;5.67;;
13720;SDS011;6932;51.438;5.470;2023-02-28T01:48:43;9.90;;;5.63;;
13720;SDS011;6932;51.438;5.470;2023-02-28T01:51:29;8.77;;;6.00;;
13720;SDS011;6932;51.438;5.470;2023-02-28T01:54:11;10.73;;;5.47;;
13720;SDS011;6932;51.438;5.470;2023-02-28T01:56:46;9.97;;;5.90;;
13720;SDS011;6932;51.438;5.470;2023-02-28T01:59:27;10.03;;;5.77;;
13720;SDS011;6932;51.438;5.470;2023-02-28T02:02:02;9.50;;;5.70;;
13720;SDS011;6932;51.438;5.470;2023-02-28T02:04:32;11.10;;;6.00;;
13720;SDS011;6932;51.438;5.470;2023-02-28T02:07:06;9.97;;;6.03;;
13720;SDS011;6932;51.438;5.470;2023-02-28T02:09:33;12.07;;;5.90;;
13720;SDS011;6932;51.438;5.470;2023-02-28T02:11:59;10.47;;;6.07;;
13720;SDS011;6932;51.438;5.470;2023-02-28T02:15:15;11.53;;;6.10;;
13720;SDS011;6932;51.438;5.470;2023-02-28T02:17:50;10.47;;;5.90;;
13720;SDS011;6932;51.438;5.470;2023-02-28T02:23:48;10.80;;;5.47;;
13720;SDS011;6932;51.438;5.470;2023-02-28T02:32:09;9.20;;;5.07;;
13720;SDS011;6932;51.438;5.470;2023-02-28T02:40:20;9.00;;;5.00;;
13720;SDS011;6932;51.438;5.470;2023-02-28T02:42:54;8.53;;;5.07;;
13720;SDS011;6932;51.438;5.470;2023-02-28T02:48:18;9.33;;;5.40;;
13720;SDS011;6932;51.438;5.470;2023-02-28T02:50:52;8.40;;;5.17;;
13720;SDS011;6932;51.438;5.470;2023-02-28T02:53:24;9.47;;;5.47;;
13720;SDS011;6932;51.438;5.470;2023-02-28T02:55:57;8.60;;;4.77;;
13720;SDS011;6932;51.438;5.470;2023-02-28T02:58:27;8.80;;;5.27;;
13720;SDS011;6932;51.438;5.470;2023-02-28T03:01:01;8.70;;;5.03;;
13720;SDS011;6932;51.438;5.470;2023-02-28T03:03:29;8.40;;;5.20;;
13720;SDS011;6932;51.438;5.470;2023-02-28T03:05:59;7.97;;;4.73;;
13720;SDS011;6932;51.438;5.470;2023-02-28T03:08:27;11.07;;;5.77;;
13720;SDS011;6932;51.438;5.470;2023-02-28T03:10:58;9.47;;;5.17;;
13720;SDS011;6932;51.438;5.470;2023-02-28T03:14:05;9.27;;;5.40;;
13720;SDS011;6932;51.438;5.470;2023-02-28T03:25:20;10.50;;;5.87;;
13720;SDS011;6932;51.438;5.470;2023-02-28T03:30:54;10.07;;;5.27;;
13720;SDS011;6932;51.438;5.470;2023-02-28T03:33:42;8.87;;;5.30;;
13720;SDS011;6932;51.438;5.470;2023-02-28T03:36:20;8.97;;;5.50;;
13720;SDS011;6932;51.438;5.470;2023-02-28T03:39:07;9.60;;;5.50;;
13720;SDS011;6932;51.438;5.470;2023-02-28T03:42:15;9.77;;;5.20;;
13720;SDS011;6932;51.438;5.470;2023-02-28T03:44:44;10.53;;;5.03;;
13720;SDS011;6932;51.438;5.470;2023-02-28T03:47:29;10.00;;;5.63;;
13720;SDS011;6932;51.438;5.470;2023-02-28T03:52:47;10.73;;;5.47;;
13720;SDS011;6932;51.438;5.470;2023-02-28T03:55:30;8.67;;;5.23;;
13720;SDS011;6932;51.438;5.470;2023-02-28T03:58:05;7.73;;;4.77;;
13720;SDS011;6932;51.438;5.470;2023-02-28T04:00:40;8.53;;;5.07;;
13720;SDS011;6932;51.438;5.470;2023-02-28T04:03:14;8.03;;;4.73;;
13720;SDS011;6932;51.438;5.470;2023-02-28T04:06:14;9.10;;;5.10;;
13720;SDS011;6932;51.438;5.470;2023-02-28T04:08:38;11.40;;;5.20;;
13720;SDS011;6932;51.438;5.470;2023-02-28T04:11:05;8.17;;;5.20;;
13720;SDS011;6932;51.438;5.470;2023-02-28T04:13:43;9.23;;;5.27;;
13720;SDS011;6932;51.438;5.470;2023-02-28T04:19:02;8.73;;;5.00;;
13720;SDS011;6932;51.438;5.470;2023-02-28T04:21:31;7.57;;;4.60;;
13720;SDS011;6932;51.438;5.470;2023-02-28T04:24:00;8.33;;;4.70;;
13720;SDS011;6932;51.438;5.470;2023-02-28T04:26:29;9.53;;;5.20;;
13720;SDS011;6932;51.438;5.470;2023-02-28T04:29:00;8.97;;;5.03;;
13720;SDS011;6932;51.438;5.470;2023-02-28T04:31:32;8.67;;;4.70;;
13720;SDS011;6932;51.438;5.470;2023-02-28T04:33:59;8.03;;;4.87;;
13720;SDS011;6932;51.438;5.470;2023-02-28T04:36:25;8.00;;;4.60;;
13720;SDS011;6932;51.438;5.470;2023-02-28T04:38:52;8.43;;;4.70;;
13720;SDS011;6932;51.438;5.470;2023-02-28T04:41:18;8.93;;;4.67;;
13720;SDS011;6932;51.438;5.470;2023-02-28T04:43:44;8.47;;;4.67;;
13720;SDS011;6932;51.438;5.470;2023-02-28T04:46:10;9.17;;;4.50;;
13720;SDS011;6932;51.438;5.470;2023-02-28T04:48:37;7.93;;;4.97;;
13720;SDS011;6932;51.438;5.470;2023-02-28T04:51:08;8.30;;;4.67;;
13720;SDS011;6932;51.438;5.470;2023-02-28T04:53:37;8.57;;;5.07;;
13720;SDS011;6932;51.438;5.470;2023-02-28T04:56:05;8.07;;;4.53;;
13720;SDS011;6932;51.438;5.470;2023-02-28T04:58:32;7.87;;;4.60;;
13720;SDS011;6932;51.438;5.470;2023-02-28T05:01:02;8.80;;;4.70;;
13720;SDS011;6932;51.438;5.470;2023-02-28T05:03:51;7.60;;;4.53;;
13720;SDS011;6932;51.438;5.470;2023-02-28T05:06:19;7.43;;;4.33;;
13720;SDS011;6932;51.438;5.470;2023-02-28T05:08:51;8.13;;;4.50;;
13720;SDS011;6932;51.438;5.470;2023-02-28T05:11:23;7.63;;;4.27;;
13720;SDS011;6932;51.438;5.470;2023-02-28T05:13:53;8.10;;;4.60;;
13720;SDS011;6932;51.438;5.470;2023-02-28T05:16:20;6.63;;;4.23;;
13720;SDS011;6932;51.438;5.470;2023-02-28T05:18:46;7.03;;;4.20;;
13720;SDS011;6932;51.438;5.470;2023-02-28T05:23:57;6.53;;;4.00;;
13720;SDS011;6932;51.438;5.470;2023-02-28T05:26:26;7.07;;;4.33;;
13720;SDS011;6932;51.438;5.470;2023-02-28T05:28:52;7.53;;;4.70;;
13720;SDS011;6932;51.438;5.470;2023-02-28T05:31:19;7.73;;;4.37;;
13720;SDS011;6932;51.438;5.470;2023-02-28T05:33:46;6.83;;;4.30;;
13720;SDS011;6932;51.438;5.470;2023-02-28T05:36:12;6.10;;;4.10;;
13720;SDS011;6932;51.438;5.470;2023-02-28T05:38:38;8.47;;;4.77;;
13720;SDS011;6932;51.438;5.470;2023-02-28T05:41:10;7.33;;;4.27;;
13720;SDS011;6932;51.438;5.470;2023-02-28T05:43:36;8.53;;;4.50;;
13720;SDS011;6932;51.438;5.470;2023-02-28T05:46:03;8.93;;;4.67;;
13720;SDS011;6932;51.438;5.470;2023-02-28T05:48:31;8.80;;;4.40;;
13720;SDS011;6932;51.438;5.470;2023-02-28T05:51:01;7.97;;;4.07;;
13720;SDS011;6932;51.438;5.470;2023-02-28T05:53:31;7.20;;;3.80;;
13720;SDS011;6932;51.438;5.470;2023-02-28T05:55:58;7.03;;;4.33;;
13720;SDS011;6932;51.438;5.470;2023-02-28T05:58:24;6.93;;;4.20;;
13720;SDS011;6932;51.438;5.470;2023-02-28T06:00:54;7.53;;;4.23;;
13720;SDS011;6932;51.438;5.470;2023-02-28T06:03:20;8.57;;;4.13;;
13720;SDS011;6932;51.438;5.470;2023-02-28T06:05:46;6.90;;;4.30;;
13720;SDS011;6932;51.438;5.470;2023-02-28T06:08:12;7.23;;;4.43;;
13720;SDS011;6932;51.438;5.470;2023-02-28T06:10:38;7.70;;;4.23;;
13720;SDS011;6932;51.438;5.470;2023-02-28T06:13:03;6.90;;;4.20;;
13720;SDS011;6932;51.438;5.470;2023-02-28T06:15:30;8.53;;;4.70;;
13720;SDS011;6932;51.438;5.470;2023-02-28T06:17:57;7.67;;;4.43;;
13720;SDS011;6932;51.438;5.470;2023-02-28T06:20:25;7.87;;;4.33;;
13720;SDS011;6932;51.438;5.470;2023-02-28T06:22:56;6.23;;;3.90;;
13720;SDS011;6932;51.438;5.470;2023-02-28T06:25:26;8.47;;;4.23;;
13720;SDS011;6932;51.438;5.470;2023-02-28T06:27:53;8.53;;;4.30;;
13720;SDS011;6932;51.438;5.470;2023-02-28T06:30:19;10.30;;;4.40;;
13720;SDS011;6932;51.438;5.470;2023-02-28T06:32:50;6.30;;;3.90;;
13720;SDS011;6932;51.438;5.470;2023-02-28T06:35:16;5.70;;;3.83;;
13720;SDS011;6932;51.438;5.470;2023-02-28T06:37:42;7.47;;;3.90;;
13720;SDS011;6932;51.438;5.470;2023-02-28T06:40:09;8.23;;;4.13;;
13720;SDS011;6932;51.438;5.470;2023-02-28T06:42:37;7.07;;;4.30;;
13720;SDS011;6932;51.438;5.470;2023-02-28T06:45:03;5.97;;;3.87;;
13720;SDS011;6932;51.438;5.470;2023-02-28T06:47:34;6.37;;;4.00;;
13720;SDS011;6932;51.438;5.470;2023-02-28T06:50:01;6.87;;;3.90;;
13720;SDS011;6932;51.438;5.470;2023-02-28T06:52:28;7.87;;;3.80;;
13720;SDS011;6932;51.438;5.470;2023-02-28T06:54:54;6.37;;;3.53;;
13720;SDS011;6932;51.438;5.470;2023-02-28T06:57:26;7.40;;;3.70;;
13720;SDS011;6932;51.438;5.470;2023-02-28T06:59:58;5.60;;;3.40;;
13720;SDS011;6932;51.438;5.470;2023-02-28T07:02:26;6.33;;;3.90;;
13720;SDS011;6932;51.438;5.470;2023-02-28T07:04:52;6.30;;;3.70;;
13720;SDS011;6932;51.438;5.470;2023-02-28T07:07:18;7.00;;;3.73;;
13720;SDS011;6932;51.438;5.470;2023-02-28T07:09:44;8.27;;;4.03;;
13720;SDS011;6932;51.438;5.470;2023-02-28T07:12:10;6.03;;;3.40;;
13720;SDS011;6932;51.438;5.470;2023-02-28T07:14:36;5.37;;;3.30;;
13720;SDS011;6932;51.438;5.470;2023-02-28T07:17:02;6.00;;;3.60;;
13720;SDS011;6932;51.438;5.470;2023-02-28T07:19:28;7.07;;;3.80;;
13720;SDS011;6932;51.438;5.470;2023-02-28T07:21:54;6.90;;;3.30;;
13720;SDS011;6932;51.438;5.470;2023-02-28T07:24:20;6.20;;;3.47;;
13720;SDS011;6932;51.438;5.470;2023-02-28T07:26:48;4.47;;;3.23;;
13720;SDS011;6932;51.438;5.470;2023-02-28T07:29:14;5.73;;;2.97;;
13720;SDS011;6932;51.438;5.470;2023-02-28T07:31:40;6.50;;;3.40;;
13720;SDS011;6932;51.438;5.470;2023-02-28T07:34:05;6.33;;;3.13;;
13720;SDS011;6932;51.438;5.470;2023-02-28T07:36:31;6.60;;;3.43;;
13720;SDS011;6932;51.438;5.470;2023-02-28T07:38:57;6.07;;;3.17;;
13720;SDS011;6932;51.438;5.470;2023-02-28T07:41:23;5.50;;;2.93;;
13720;SDS011;6932;51.438;5.470;2023-02-28T07:43:53;4.83;;;3.20;;
13720;SDS011;6932;51.438;5.470;2023-02-28T07:46:20;5.60;;;3.07;;
13720;SDS011;6932;51.438;5.470;2023-02-28T07:48:46;4.13;;;2.60;;
13720;SDS011;6932;51.438;5.470;2023-02-28T07:51:12;4.57;;;3.10;;
13720;SDS011;6932;51.438;5.470;2023-02-28T07:53:37;5.30;;;2.83;;
13720;SDS011;6932;51.438;5.470;2023-02-28T07:56:04;5.27;;;2.90;;
13720;SDS011;6932;51.438;5.470;2023-02-28T07:58:30;5.50;;;3.00;;
13720;SDS011;6932;51.438;5.470;2023-02-28T08:00:56;5.47;;;3.17;;
13720;SDS011;6932;51.438;5.470;2023-02-28T08:03:29;5.43;;;3.10;;
13720;SDS011;6932;51.438;5.470;2023-02-28T08:05:55;5.13;;;2.90;;
13720;SDS011;6932;51.438;5.470;2023-02-28T08:08:20;5.77;;;2.87;;
13720;SDS011;6932;51.438;5.470;2023-02-28T08:10:46;5.43;;;2.80;;
13720;SDS011;6932;51.438;5.470;2023-02-28T08:13:12;5.23;;;2.40;;
13720;SDS011;6932;51.438;5.470;2023-02-28T08:15:37;4.10;;;2.53;;
13720;SDS011;6932;51.438;5.470;2023-02-28T08:18:05;3.80;;;2.70;;
13720;SDS011;6932;51.438;5.470;2023-02-28T08:20:31;6.90;;;2.60;;
13720;SDS011;6932;51.438;5.470;2023-02-28T08:22:57;4.70;;;2.57;;
13720;SDS011;6932;51.438;5.470;2023-02-28T08:25:23;4.53;;;2.67;;
13720;SDS011;6932;51.438;5.470;2023-02-28T08:27:50;5.03;;;2.60;;
13720;SDS011;6932;51.438;5.470;2023-02-28T08:30:17;4.77;;;2.70;;
13720;SDS011;6932;51.438;5.470;2023-02-28T08:32:43;4.77;;;2.60;;
13720;SDS011;6932;51.438;5.470;2023-02-28T08:35:09;4.27;;;2.67;;
13720;SDS011;6932;51.438;5.470;2023-02-28T08:37:35;4.33;;;2.50;;
13720;SDS011;6932;51.438;5.470;2023-02-28T08:40:01;3.33;;;2.37;;
13720;SDS011;6932;51.438;5.470;2023-02-28T08:42:28;2.53;;;1.93;;
13720;SDS011;6932;51.438;5.470;2023-02-28T08:44:55;2.53;;;1.90;;
13720;SDS011;6932;51.438;5.470;2023-02-28T08:47:21;3.80;;;2.43;;
13720;SDS011;6932;51.438;5.470;2023-02-28T08:49:47;4.97;;;2.17;;
13720;SDS011;6932;51.438;5.470;2023-02-28T08:52:12;3.77;;;2.10;;
13720;SDS011;6932;51.438;5.470;2023-02-28T08:54:38;3.70;;;2.20;;
13720;SDS011;6932;51.438;5.470;2023-02-28T08:57:04;4.13;;;2.40;;
13720;SDS011;6932;51.438;5.470;2023-02-28T08:59:30;4.37;;;2.17;;
13720;SDS011;6932;51.438;5.470;2023-02-28T09:01:57;3.70;;;2.20;;
13720;SDS011;6932;51.438;5.470;2023-02-28T09:04:23;2.57;;;2.07;;
13720;SDS011;6932;51.438;5.470;2023-02-28T09:06:49;4.83;;;2.50;;
13720;SDS011;6932;51.438;5.470;2023-02-28T09:09:15;4.07;;;2.50;;
13720;SDS011;6932;51.438;5.470;2023-02-28T09:11:41;3.20;;;2.30;;
13720;SDS011;6932;51.438;5.470;2023-02-28T09:14:07;4.03;;;2.30;;
13720;SDS011;6932;51.438;5.470;2023-02-28T09:16:33;3.97;;;2.00;;
13720;SDS011;6932;51.438;5.470;2023-02-28T09:18:59;3.10;;;2.00;;
13720;SDS011;6932;51.438;5.470;2023-02-28T09:21:26;3.23;;;1.97;;
13720;SDS011;6932;51.438;5.470;2023-02-28T09:23:52;2.30;;;1.93;;
13720;SDS011;6932;51.438;5.470;2023-02-28T09:28:50;2.93;;;2.00;;
13720;SDS011;6932;51.438;5.470;2023-02-28T09:31:21;2.07;;;1.80;;
13720;SDS011;6932;51.438;5.470;2023-02-28T09:33:51;2.53;;;2.00;;
13720;SDS011;6932;51.438;5.470;2023-02-28T09:36:19;2.67;;;2.00;;
13720;SDS011;6932;51.438;5.470;2023-02-28T09:38:45;1.93;;;1.63;;
13720;SDS011;6932;51.438;5.470;2023-02-28T09:41:21;2.50;;;2.00;;
13720;SDS011;6932;51.438;5.470;2023-02-28T09:43:59;2.87;;;2.10;;
13720;SDS011;6932;51.438;5.470;2023-02-28T09:46:35;2.47;;;1.80;;
13720;SDS011;6932;51.438;5.470;2023-02-28T09:49:10;2.80;;;2.00;;
13720;SDS011;6932;51.438;5.470;2023-02-28T09:54:31;4.57;;;2.23;;
13720;SDS011;6932;51.438;5.470;2023-02-28T09:57:05;3.47;;;1.77;;
13720;SDS011;6932;51.438;5.470;2023-02-28T10:05:30;3.67;;;2.00;;
13720;SDS011;6932;51.438;5.470;2023-02-28T10:08:12;2.73;;;1.90;;
13720;SDS011;6932;51.438;5.470;2023-02-28T10:10:49;2.40;;;1.80;;
13720;SDS011;6932;51.438;5.470;2023-02-28T10:16:05;2.50;;;1.90;;
13720;SDS011;6932;51.438;5.470;2023-02-28T10:18:57;2.67;;;1.70;;
13720;SDS011;6932;51.438;5.470;2023-02-28T10:24:35;2.97;;;1.67;;
13720;SDS011;6932;51.438;5.470;2023-02-28T10:27:18;3.00;;;1.90;;
13720;SDS011;6932;51.438;5.470;2023-02-28T10:29:54;2.63;;;1.90;;
13720;SDS011;6932;51.438;5.470;2023-02-28T10:32:27;3.20;;;1.90;;
13720;SDS011;6932;51.438;5.470;2023-02-28T10:37:32;5.17;;;2.20;;
13720;SDS011;6932;51.438;5.470;2023-02-28T10:40:03;4.17;;;1.97;;
13720;SDS011;6932;51.438;5.470;2023-02-28T10:42:55;2.63;;;2.00;;
13720;SDS011;6932;51.438;5.470;2023-02-28T10:46:10;3.77;;;1.97;;
13720;SDS011;6932;51.438;5.470;2023-02-28T10:51:14;2.37;;;1.90;;
13720;SDS011;6932;51.438;5.470;2023-02-28T10:53:51;2.80;;;2.00;;
13720;SDS011;6932;51.438;5.470;2023-02-28T10:56:21;2.23;;;1.80;;
13720;SDS011;6932;51.438;5.470;2023-02-28T10:58:59;4.50;;;2.00;;
13720;SDS011;6932;51.438;5.470;2023-02-28T11:01:45;3.00;;;1.90;;
13720;SDS011;6932;51.438;5.470;2023-02-28T11:07:05;2.57;;;1.83;;
13720;SDS011;6932;51.438;5.470;2023-02-28T11:12:46;2.67;;;1.80;;
13720;SDS011;6932;51.438;5.470;2023-02-28T11:15:25;3.67;;;2.00;;
13720;SDS011;6932;51.438;5.470;2023-02-28T11:17:56;2.43;;;1.87;;
13720;SDS011;6932;51.438;5.470;2023-02-28T11:20:46;3.43;;;1.90;;
13720;SDS011;6932;51.438;5.470;2023-02-28T11:23:15;3.73;;;1.87;;
13720;SDS011;6932;51.438;5.470;2023-02-28T11:25:49;3.77;;;2.00;;
13720;SDS011;6932;51.438;5.470;2023-02-28T11:33:51;2.77;;;2.00;;
13720;SDS011;6932;51.438;5.470;2023-02-28T11:38:50;3.57;;;1.87;;
13720;SDS011;6932;51.438;5.470;2023-02-28T11:46:49;4.57;;;2.20;;
13720;SDS011;6932;51.438;5.470;2023-02-28T11:49:47;4.33;;;2.20;;
13720;SDS011;6932;51.438;5.470;2023-02-28T11:55:26;4.70;;;2.40;;
13720;SDS011;6932;51.438;5.470;2023-02-28T12:00:50;2.87;;;2.07;;
13720;SDS011;6932;51.438;5.470;2023-02-28T12:06:23;3.03;;;2.30;;
13720;SDS011;6932;51.438;5.470;2023-02-28T12:23:19;3.60;;;2.40;;
13720;SDS011;6932;51.438;5.470;2023-02-28T12:28:38;5.03;;;2.50;;
13720;SDS011;6932;51.438;5.470;2023-02-28T12:31:19;3.97;;;2.37;;
13720;SDS011;6932;51.438;5.470;2023-02-28T12:33:53;4.43;;;2.30;;
13720;SDS011;6932;51.438;5.470;2023-02-28T12:36:29;5.47;;;2.60;;
13720;SDS011;6932;51.438;5.470;2023-02-28T12:39:12;4.50;;;2.50;;
13720;SDS011;6932;51.438;5.470;2023-02-28T12:41:59;4.20;;;2.50;;
13720;SDS011;6932;51.438;5.470;2023-02-28T12:45:22;4.90;;;2.67;;
13720;SDS011;6932;51.438;5.470;2023-02-28T12:48:14;4.83;;;2.30;;
13720;SDS011;6932;51.438;5.470;2023-02-28T12:50:50;3.47;;;2.47;;
13720;SDS011;6932;51.438;5.470;2023-02-28T12:53:24;3.93;;;2.43;;
13720;SDS011;6932;51.438;5.470;2023-02-28T13:01:21;3.03;;;2.33;;
13720;SDS011;6932;51.438;5.470;2023-02-28T13:10:04;4.10;;;2.50;;
13720;SDS011;6932;51.438;5.470;2023-02-28T13:12:32;3.80;;;2.10;;
13720;SDS011;6932;51.438;5.470;2023-02-28T13:17:55;2.97;;;2.30;;
13720;SDS011;6932;51.438;5.470;2023-02-28T13:20:29;3.57;;;2.23;;
13720;SDS011;6932;51.438;5.470;2023-02-28T13:23:35;3.20;;;2.40;;
13720;SDS011;6932;51.438;5.470;2023-02-28T13:26:05;3.33;;;2.33;;
13720;SDS011;6932;51.438;5.470;2023-02-28T13:31:15;4.50;;;2.50;;
13720;SDS011;6932;51.438;5.470;2023-02-28T13:38:44;3.30;;;2.63;;
13720;SDS011;6932;51.438;5.470;2023-02-28T13:41:55;3.53;;;2.40;;
13720;SDS011;6932;51.438;5.470;2023-02-28T13:44:22;4.73;;;2.50;;
13720;SDS011;6932;51.438;5.470;2023-02-28T13:57:47;4.07;;;2.50;;
13720;SDS011;6932;51.438;5.470;2023-02-28T14:08:56;3.17;;;2.33;;
13720;SDS011;6932;51.438;5.470;2023-02-28T14:11:30;3.33;;;2.27;;
13720;SDS011;6932;51.438;5.470;2023-02-28T14:14:03;3.07;;;2.47;;
13720;SDS011;6932;51.438;5.470;2023-02-28T14:19:13;3.53;;;2.60;;
13720;SDS011;6932;51.438;5.470;2023-02-28T14:32:47;3.57;;;2.70;;
13720;SDS011;6932;51.438;5.470;2023-02-28T14:35:44;4.23;;;2.60;;
13720;SDS011;6932;51.438;5.470;2023-02-28T14:38:31;4.03;;;2.70;;
13720;SDS011;6932;51.438;5.470;2023-02-28T14:41:16;4.50;;;3.00;;
13720;SDS011;6932;51.438;5.470;2023-02-28T14:44:13;5.10;;;2.80;;
13720;SDS011;6932;51.438;5.470;2023-02-28T14:46:49;3.53;;;2.63;;
13720;SDS011;6932;51.438;5.470;2023-02-28T14:49:20;4.30;;;3.03;;
13720;SDS011;6932;51.438;5.470;2023-02-28T14:52:23;4.97;;;3.07;;
13720;SDS011;6932;51.438;5.470;2023-02-28T14:54:57;5.37;;;3.00;;
13720;SDS011;6932;51.438;5.470;2023-02-28T14:57:29;4.30;;;3.17;;
13720;SDS011;6932;51.438;5.470;2023-02-28T15:00:09;6.70;;;3.20;;
13720;SDS011;6932;51.438;5.470;2023-02-28T15:02:45;4.73;;;3.30;;
13720;SDS011;6932;51.438;5.470;2023-02-28T15:07:45;3.87;;;2.90;;
13720;SDS011;6932;51.438;5.470;2023-02-28T15:10:18;4.77;;;3.10;;
13720;SDS011;6932;51.438;5.470;2023-02-28T15:12:46;4.57;;;3.20;;
13720;SDS011;6932;51.438;5.470;2023-02-28T15:15:49;5.27;;;2.90;;
13720;SDS011;6932;51.438;5.470;2023-02-28T15:21:00;5.77;;;3.10;;
13720;SDS011;6932;51.438;5.470;2023-02-28T15:23:32;3.60;;;2.80;;
13720;SDS011;6932;51.438;5.470;2023-02-28T15:26:01;4.27;;;2.97;;
13720;SDS011;6932;51.438;5.470;2023-02-28T15:28:28;4.60;;;2.80;;
13720;SDS011;6932;51.438;5.470;2023-02-28T15:30:57;4.90;;;2.67;;
13720;SDS011;6932;51.438;5.470;2023-02-28T15:33:47;4.13;;;2.80;;
13720;SDS011;6932;51.438;5.470;2023-02-28T15:36:19;4.30;;;2.93;;
13720;SDS011;6932;51.438;5.470;2023-02-28T15:38:52;4.57;;;3.10;;
13720;SDS011;6932;51.438;5.470;2023-02-28T15:41:25;5.80;;;2.83;;
13720;SDS011;6932;51.438;5.470;2023-02-28T15:47:06;3.70;;;2.70;;
13720;SDS011;6932;51.438;5.470;2023-02-28T15:52:43;4.03;;;2.90;;
13720;SDS011;6932;51.438;5.470;2023-02-28T15:57:48;4.67;;;2.87;;
13720;SDS011;6932;51.438;5.470;2023-02-28T16:00:24;3.60;;;2.70;;
13720;SDS011;6932;51.438;5.470;2023-02-28T16:02:53;4.20;;;2.70;;
13720;SDS011;6932;51.438;5.470;2023-02-28T16:05:26;3.97;;;2.90;;
13720;SDS011;6932;51.438;5.470;2023-02-28T16:08:12;4.33;;;3.00;;
13720;SDS011;6932;51.438;5.470;2023-02-28T16:10:40;3.63;;;2.60;;
13720;SDS011;6932;51.438;5.470;2023-02-28T16:13:06;4.27;;;2.70;;
13720;SDS011;6932;51.438;5.470;2023-02-28T16:15:39;4.70;;;2.80;;
13720;SDS011;6932;51.438;5.470;2023-02-28T16:18:08;4.13;;;2.93;;
13720;SDS011;6932;51.438;5.470;2023-02-28T16:23:31;4.67;;;2.77;;
13720;SDS011;6932;51.438;5.470;2023-02-28T16:25:56;5.83;;;2.93;;
13720;SDS011;6932;51.438;5.470;2023-02-28T16:28:33;4.30;;;2.90;;
13720;SDS011;6932;51.438;5.470;2023-02-28T16:31:02;4.17;;;3.00;;
13720;SDS011;6932;51.438;5.470;2023-02-28T16:33:32;4.60;;;2.87;;
13720;SDS011;6932;51.438;5.470;2023-02-28T16:35:59;3.60;;;2.80;;
13720;SDS011;6932;51.438;5.470;2023-02-28T16:38:26;4.33;;;3.07;;
13720;SDS011;6932;51.438;5.470;2023-02-28T16:40:53;3.90;;;2.67;;
13720;SDS011;6932;51.438;5.470;2023-02-28T16:43:24;4.70;;;2.83;;
13720;SDS011;6932;51.438;5.470;2023-02-28T16:45:55;4.93;;;3.20;;
13720;SDS011;6932;51.438;5.470;2023-02-28T16:48:23;4.17;;;2.80;;
13720;SDS011;6932;51.438;5.470;2023-02-28T16:50:50;4.30;;;2.90;;
13720;SDS011;6932;51.438;5.470;2023-02-28T16:53:16;3.73;;;2.80;;
13720;SDS011;6932;51.438;5.470;2023-02-28T16:55:42;6.47;;;3.03;;
13720;SDS011;6932;51.438;5.470;2023-02-28T16:58:15;4.53;;;3.13;;
13720;SDS011;6932;51.438;5.470;2023-02-28T17:00:42;4.47;;;3.10;;
13720;SDS011;6932;51.438;5.470;2023-02-28T17:03:19;4.20;;;2.60;;
13720;SDS011;6932;51.438;5.470;2023-02-28T17:05:49;4.67;;;3.00;;
13720;SDS011;6932;51.438;5.470;2023-02-28T17:08:15;4.13;;;2.70;;
13720;SDS011;6932;51.438;5.470;2023-02-28T17:10:41;4.00;;;2.80;;
13720;SDS011;6932;51.438;5.470;2023-02-28T17:13:07;4.10;;;2.87;;
13720;SDS011;6932;51.438;5.470;2023-02-28T17:15:34;4.73;;;3.10;;
13720;SDS011;6932;51.438;5.470;2023-02-28T17:18:01;6.37;;;2.83;;
13720;SDS011;6932;51.438;5.470;2023-02-28T17:20:27;4.83;;;2.93;;
13720;SDS011;6932;51.438;5.470;2023-02-28T17:22:55;4.03;;;2.80;;
13720;SDS011;6932;51.438;5.470;2023-02-28T17:25:22;4.80;;;3.20;;
13720;SDS011;6932;51.438;5.470;2023-02-28T17:27:49;4.33;;;2.80;;
13720;SDS011;6932;51.438;5.470;2023-02-28T17:30:20;5.50;;;3.10;;
13720;SDS011;6932;51.438;5.470;2023-02-28T17:32:52;5.33;;;3.13;;
13720;SDS011;6932;51.438;5.470;2023-02-28T17:35:21;4.33;;;2.93;;
13720;SDS011;6932;51.438;5.470;2023-02-28T17:37:48;5.07;;;3.00;;
13720;SDS011;6932;51.438;5.470;2023-02-28T17:40:15;5.53;;;3.23;;
13720;SDS011;6932;51.438;5.470;2023-02-28T17:42:44;6.53;;;3.30;;
13720;SDS011;6932;51.438;5.470;2023-02-28T17:45:10;6.93;;;3.80;;
13720;SDS011;6932;51.438;5.470;2023-02-28T17:47:38;6.83;;;3.57;;
13720;SDS011;6932;51.438;5.470;2023-02-28T17:50:05;5.83;;;3.63;;
13720;SDS011;6932;51.438;5.470;2023-02-28T17:52:31;5.90;;;3.40;;
13720;SDS011;6932;51.438;5.470;2023-02-28T17:55:01;8.03;;;3.30;;
13720;SDS011;6932;51.438;5.470;2023-02-28T17:57:29;4.90;;;3.30;;
13720;SDS011;6932;51.438;5.470;2023-02-28T17:59:54;5.83;;;3.50;;
13720;SDS011;6932;51.438;5.470;2023-02-28T18:02:20;7.27;;;3.53;;
13720;SDS011;6932;51.438;5.470;2023-02-28T18:04:46;6.10;;;3.50;;
13720;SDS011;6932;51.438;5.470;2023-02-28T18:07:12;5.77;;;3.77;;
13720;SDS011;6932;51.438;5.470;2023-02-28T18:09:37;5.97;;;3.70;;
13720;SDS011;6932;51.438;5.470;2023-02-28T18:12:03;6.20;;;3.53;;
13720;SDS011;6932;51.438;5.470;2023-02-28T18:14:45;5.30;;;3.40;;
13720;SDS011;6932;51.438;5.470;2023-02-28T18:17:12;5.60;;;3.67;;
13720;SDS011;6932;51.438;5.470;2023-02-28T18:19:38;5.53;;;3.60;;
13720;SDS011;6932;51.438;5.470;2023-02-28T18:22:04;5.47;;;3.40;;
13720;SDS011;6932;51.438;5.470;2023-02-28T18:24:32;5.97;;;3.50;;